createdAt,value
2023-03-17T00:00:07.227Z,15.38
2023-03-17T00:01:09.877Z,15.27
2023-03-17T00:02:12.109Z,16.00
2023-03-17T00:03:23.742Z,16.33
2023-03-17T00:04:27.403Z,14.40
2023-03-17T00:05:35.629Z,16.25
2023-03-17T00:06:38.325Z,16.30
2023-03-17T00:07:40.674Z,16.48
2023-03-17T00:08:43.870Z,19.98
2023-03-17T00:09:46.076Z,15.20
2023-03-17T00:10:48.789Z,16.95
2023-03-17T00:11:51.098Z,18.10
2023-03-17T00:12:55.161Z,21.45
2023-03-17T00:13:57.667Z,13.35
2023-03-17T00:14:59.843Z,18.58
2023-03-17T00:16:04.452Z,16.48
2023-03-17T00:17:06.760Z,18.10
2023-03-17T00:18:17.683Z,18.98
2023-03-17T00:19:33.793Z,19.25
2023-03-17T00:20:35.907Z,19.45
2023-03-17T00:21:38.044Z,15.38
2023-03-17T00:22:40.275Z,19.58
2023-03-17T00:23:47.043Z,16.70
2023-03-17T00:24:49.652Z,19.38
2023-03-17T00:25:53.560Z,20.25
2023-03-17T00:26:55.703Z,14.70
2023-03-17T00:28:00.876Z,18.77
2023-03-17T00:29:03.008Z,16.63
2023-03-17T00:30:05.659Z,21.27
2023-03-17T00:31:20.987Z,19.35
2023-03-17T00:32:23.241Z,14.77
2023-03-17T00:33:30.491Z,15.15
2023-03-17T00:34:32.814Z,17.08
2023-03-17T00:35:34.945Z,18.25
2023-03-17T00:36:37.522Z,18.63
2023-03-17T00:37:39.623Z,13.52
2023-03-17T00:38:41.848Z,15.90
2023-03-17T00:39:44.263Z,18.90
2023-03-17T00:42:50.959Z,16.35
2023-03-17T00:43:53.149Z,17.25
2023-03-17T00:44:55.634Z,20.63
2023-03-17T00:45:57.832Z,19.95
2023-03-17T00:47:00.710Z,14.27
2023-03-17T00:48:03.414Z,18.27
2023-03-17T00:50:24.479Z,21.38
2023-03-17T00:51:27.066Z,21.85
2023-03-17T00:52:29.390Z,16.80
2023-03-17T00:53:31.553Z,22.48
2023-03-17T00:54:33.833Z,16.88
2023-03-17T00:55:36.044Z,21.90
2023-03-17T00:56:39.689Z,18.33
2023-03-17T00:57:42.961Z,22.60
2023-03-17T00:58:46.167Z,17.83
2023-03-17T00:59:48.349Z,18.02
2023-03-17T01:00:52.241Z,19.17
2023-03-17T01:01:55.400Z,17.83
2023-03-17T01:02:57.973Z,15.10
2023-03-17T01:04:00.123Z,20.52
2023-03-17T01:05:06.698Z,16.15
2023-03-17T01:06:12.099Z,19.73
2023-03-17T01:07:14.478Z,21.33
2023-03-17T01:08:16.904Z,20.00
2023-03-17T01:09:19.574Z,17.23
2023-03-17T01:10:25.892Z,18.08
2023-03-17T01:11:28.020Z,16.75
2023-03-17T01:12:30.266Z,16.83
2023-03-17T01:13:32.376Z,16.38
2023-03-17T01:14:37.354Z,19.60
2023-03-17T01:15:43.343Z,18.67
2023-03-17T01:16:45.569Z,20.20
2023-03-17T01:17:48.065Z,18.73
2023-03-17T01:18:50.174Z,21.88
2023-03-17T01:19:52.854Z,25.88
2023-03-17T01:20:54.988Z,23.27
2023-03-17T01:21:57.873Z,22.02
2023-03-17T01:23:01.574Z,21.38
2023-03-17T01:24:04.456Z,18.00
2023-03-17T01:25:06.884Z,27.77
2023-03-17T01:26:09.672Z,23.35
2023-03-17T01:27:12.381Z,24.48
2023-03-17T01:28:18.007Z,19.30
2023-03-17T01:29:20.172Z,19.52
2023-03-17T01:30:31.455Z,24.67
2023-03-17T01:31:34.875Z,22.10
2023-03-17T01:32:37.205Z,22.92
2023-03-17T01:33:39.394Z,17.75
2023-03-17T01:34:41.509Z,19.67
2023-03-17T01:35:45.845Z,26.33
2023-03-17T01:36:48.611Z,24.55
2023-03-17T01:37:51.101Z,21.42
2023-03-17T01:38:53.800Z,21.67
2023-03-17T01:39:55.972Z,23.20
2023-03-17T01:40:58.239Z,25.27
2023-03-17T01:42:01.402Z,25.40
2023-03-17T01:43:06.312Z,21.08
2023-03-17T01:44:15.791Z,26.00
2023-03-17T01:45:55.216Z,31.40
2023-03-17T01:46:57.355Z,24.50
2023-03-17T01:47:59.494Z,22.55
2023-03-17T01:49:10.477Z,23.83
2023-03-17T01:50:13.184Z,26.05
2023-03-17T01:51:23.152Z,24.77
2023-03-17T01:52:25.373Z,28.20
2023-03-17T01:53:28.345Z,28.95
2023-03-17T01:54:37.942Z,22.95
2023-03-17T01:55:40.599Z,24.65
2023-03-17T01:56:44.734Z,27.77
2023-03-17T01:57:51.205Z,26.70
2023-03-17T01:58:54.614Z,28.60
2023-03-17T02:00:06.523Z,25.90
2023-03-17T02:01:08.787Z,27.10
2023-03-17T02:02:15.210Z,27.55
2023-03-17T02:03:18.319Z,25.73
2023-03-17T02:04:20.917Z,28.60
2023-03-17T02:05:26.084Z,30.02
2023-03-17T02:06:28.421Z,26.23
2023-03-17T02:07:31.461Z,32.08
2023-03-17T02:08:33.593Z,26.15
2023-03-17T02:09:36.143Z,25.02
2023-03-17T02:10:39.397Z,29.30
2023-03-17T02:11:42.185Z,25.25
2023-03-17T02:12:46.368Z,26.42
2023-03-17T02:13:48.655Z,29.02
2023-03-17T02:14:51.876Z,24.52
2023-03-17T02:15:54.522Z,26.10
2023-03-17T02:16:57.474Z,31.05
2023-03-17T02:18:00.151Z,25.42
2023-03-17T02:19:02.228Z,30.27
2023-03-17T02:20:33.238Z,27.80
2023-03-17T02:21:43.883Z,23.23
2023-03-17T02:22:49.621Z,25.02
2023-03-17T02:23:51.809Z,23.50
2023-03-17T02:24:58.560Z,24.20
2023-03-17T02:26:00.794Z,23.95
2023-03-17T02:27:34.868Z,28.90
2023-03-17T02:28:37.056Z,27.63
2023-03-17T02:29:39.517Z,25.92
2023-03-17T02:30:43.142Z,25.17
2023-03-17T02:31:45.560Z,27.83
2023-03-17T02:32:47.911Z,26.40
2023-03-17T02:33:50.435Z,26.55
2023-03-17T02:34:53.097Z,31.00
2023-03-17T02:35:55.321Z,30.88
2023-03-17T02:36:58.608Z,26.17
2023-03-17T02:38:01.157Z,26.08
2023-03-17T02:39:04.442Z,27.75
2023-03-17T02:40:07.831Z,29.98
2023-03-17T02:41:10.025Z,27.98
2023-03-17T02:42:14.007Z,25.88
2023-03-17T02:43:16.758Z,25.27
2023-03-17T02:44:19.114Z,27.63
2023-03-17T02:45:21.572Z,28.20
2023-03-17T02:46:23.734Z,29.20
2023-03-17T02:47:26.122Z,28.83
2023-03-17T02:48:28.424Z,24.85
2023-03-17T02:49:31.193Z,26.52
2023-03-17T02:50:33.603Z,31.27
2023-03-17T02:51:36.231Z,31.88
2023-03-17T02:52:38.350Z,30.00
2023-03-17T02:53:40.706Z,27.55
2023-03-17T02:54:42.965Z,24.77
2023-03-17T02:55:45.078Z,31.63
2023-03-17T02:56:47.253Z,28.70
2023-03-17T02:57:49.393Z,29.95
2023-03-17T02:58:51.783Z,25.05
2023-03-17T02:59:53.966Z,29.55
2023-03-17T03:00:56.626Z,28.52
2023-03-17T03:01:58.838Z,30.10
2023-03-17T03:03:01.405Z,26.10
2023-03-17T03:04:04.062Z,27.70
2023-03-17T03:05:07.427Z,30.70
2023-03-17T03:06:09.552Z,32.17
2023-03-17T03:07:12.382Z,25.95
2023-03-17T03:08:14.652Z,28.50
2023-03-17T03:09:17.891Z,29.23
2023-03-17T03:10:20.049Z,29.05
2023-03-17T03:11:22.359Z,27.65
2023-03-17T03:12:24.976Z,27.25
2023-03-17T03:13:27.142Z,34.38
2023-03-17T03:14:29.300Z,27.45
2023-03-17T03:15:31.507Z,27.30
2023-03-17T03:16:34.395Z,25.55
2023-03-17T03:17:36.830Z,26.60
2023-03-17T03:18:38.997Z,29.27
2023-03-17T03:19:41.112Z,28.52
2023-03-17T03:20:44.687Z,30.33
2023-03-17T03:21:46.812Z,29.48
2023-03-17T03:22:48.975Z,29.70
2023-03-17T03:23:51.165Z,28.20
2023-03-17T03:24:53.298Z,29.77
2023-03-17T03:25:55.828Z,28.50
2023-03-17T03:26:58.104Z,30.30
2023-03-17T03:28:00.261Z,29.90
2023-03-17T03:29:02.836Z,29.58
2023-03-17T03:30:07.986Z,24.73
2023-03-17T03:31:10.431Z,29.27
2023-03-17T03:32:12.739Z,31.20
2023-03-17T03:33:15.592Z,29.10
2023-03-17T03:34:17.730Z,25.35
2023-03-17T03:35:19.900Z,30.45
2023-03-17T03:36:22.595Z,29.95
2023-03-17T03:37:25.075Z,25.50
2023-03-17T03:38:27.604Z,30.75
2023-03-17T03:39:29.717Z,31.92
2023-03-17T03:40:32.321Z,29.83
2023-03-17T03:41:34.756Z,31.27
2023-03-17T03:42:36.879Z,24.73
2023-03-17T03:43:39.026Z,26.10
2023-03-17T03:44:41.161Z,28.55
2023-03-17T03:45:43.386Z,29.23
2023-03-17T03:46:45.888Z,25.98
2023-03-17T03:47:48.114Z,27.42
2023-03-17T03:48:50.240Z,27.33
2023-03-17T03:49:52.419Z,31.92
2023-03-17T03:50:58.613Z,25.67
2023-03-17T03:52:00.928Z,30.20
2023-03-17T03:53:03.083Z,26.50
2023-03-17T03:54:05.329Z,32.70
2023-03-17T03:55:09.009Z,27.80
2023-03-17T03:56:11.299Z,28.42
2023-03-17T03:57:13.417Z,22.05
2023-03-17T03:58:15.523Z,28.50
2023-03-17T03:59:17.840Z,29.02
2023-03-17T04:00:20.236Z,28.88
2023-03-17T04:01:22.395Z,32.17
2023-03-17T04:02:24.584Z,27.77
2023-03-17T04:03:27.096Z,26.58
2023-03-17T04:04:29.376Z,30.52
2023-03-17T04:05:31.874Z,29.33
2023-03-17T04:06:33.995Z,25.55
2023-03-17T04:07:37.002Z,30.17
2023-03-17T04:08:39.152Z,29.80
2023-03-17T04:09:41.529Z,28.63
2023-03-17T04:10:43.762Z,28.05
2023-03-17T04:11:45.980Z,24.30
2023-03-17T04:12:48.102Z,36.20
2023-03-17T04:13:50.273Z,28.85
2023-03-17T04:14:52.382Z,30.80
2023-03-17T04:15:54.613Z,26.98
2023-03-17T04:16:56.740Z,33.13
2023-03-17T04:17:58.877Z,34.03
2023-03-17T04:19:01.709Z,35.30
2023-03-17T04:20:04.311Z,30.73
2023-03-17T04:21:08.377Z,25.73
2023-03-17T04:22:12.020Z,31.38
2023-03-17T04:23:14.158Z,26.83
2023-03-17T04:24:16.353Z,27.67
2023-03-17T04:25:18.710Z,27.65
2023-03-17T04:26:23.144Z,29.00
2023-03-17T04:27:25.300Z,27.85
2023-03-17T04:28:27.570Z,29.52
2023-03-17T04:29:30.018Z,28.08
2023-03-17T04:30:32.698Z,32.08
2023-03-17T04:31:36.155Z,25.80
2023-03-17T04:32:38.313Z,25.65
2023-03-17T04:33:40.877Z,32.72
2023-03-17T04:34:43.027Z,23.90
2023-03-17T04:35:45.555Z,28.90
2023-03-17T04:36:48.194Z,26.83
2023-03-17T04:37:51.056Z,28.20
2023-03-17T04:38:53.438Z,23.48
2023-03-17T04:39:55.951Z,26.73
2023-03-17T04:40:58.084Z,26.65
2023-03-17T04:42:00.277Z,22.38
2023-03-17T04:43:03.546Z,25.55
2023-03-17T04:44:06.338Z,27.05
2023-03-17T04:45:15.551Z,28.50
2023-03-17T04:46:18.186Z,26.02
2023-03-17T04:47:20.303Z,26.85
2023-03-17T04:48:22.444Z,26.15
2023-03-17T04:49:24.834Z,27.98
2023-03-17T04:50:26.952Z,27.40
2023-03-17T04:51:29.097Z,25.60
2023-03-17T04:52:31.208Z,26.00
2023-03-17T04:53:33.395Z,24.27
2023-03-17T04:54:36.565Z,24.08
2023-03-17T04:55:38.679Z,26.52
2023-03-17T04:56:41.073Z,23.13
2023-03-17T04:57:44.373Z,23.15
2023-03-17T04:58:46.697Z,27.63
2023-03-17T04:59:48.845Z,29.27
2023-03-17T05:00:51.498Z,24.40
2023-03-17T05:01:53.660Z,23.50
2023-03-17T05:02:55.777Z,21.95
2023-03-17T05:03:57.945Z,26.55
2023-03-17T05:05:00.169Z,23.15
2023-03-17T05:06:03.802Z,27.55
2023-03-17T05:07:05.954Z,26.60
2023-03-17T05:08:08.070Z,23.95
2023-03-17T05:09:10.403Z,28.05
2023-03-17T05:10:12.696Z,28.35
2023-03-17T05:11:15.416Z,24.75
2023-03-17T05:12:17.569Z,25.45
2023-03-17T05:13:19.688Z,23.42
2023-03-17T05:14:21.841Z,26.95
2023-03-17T05:15:24.009Z,25.63
2023-03-17T05:16:26.150Z,22.83
2023-03-17T05:17:28.368Z,25.75
2023-03-17T05:18:30.669Z,23.85
2023-03-17T05:19:32.924Z,26.55
2023-03-17T05:20:35.049Z,25.08
2023-03-17T05:21:37.267Z,24.25
2023-03-17T05:22:39.454Z,24.50
2023-03-17T05:23:41.956Z,22.50
2023-03-17T05:24:44.353Z,28.10
2023-03-17T05:25:46.922Z,22.63
2023-03-17T05:26:49.089Z,22.33
2023-03-17T05:27:51.359Z,24.65
2023-03-17T05:28:53.457Z,22.45
2023-03-17T05:29:55.993Z,22.92
2023-03-17T05:30:58.456Z,25.05
2023-03-17T05:32:00.671Z,24.77
2023-03-17T05:33:03.089Z,27.23
2023-03-17T05:34:05.716Z,27.08
2023-03-17T05:35:08.098Z,25.92
2023-03-17T05:36:10.266Z,29.13
2023-03-17T05:37:12.936Z,24.05
2023-03-17T05:38:16.076Z,26.90
2023-03-17T05:39:18.245Z,26.42
2023-03-17T05:40:22.512Z,31.92
2023-03-17T05:41:26.559Z,28.83
2023-03-17T05:42:28.690Z,27.40
2023-03-17T05:43:30.812Z,29.65
2023-03-17T05:44:32.993Z,32.63
2023-03-17T05:45:35.181Z,29.58
2023-03-17T05:46:37.419Z,34.38
2023-03-17T05:47:39.573Z,31.23
2023-03-17T05:48:41.978Z,29.02
2023-03-17T05:49:44.104Z,34.22
2023-03-17T05:50:46.280Z,30.58
2023-03-17T05:51:48.408Z,30.17
2023-03-17T05:52:52.276Z,31.80
2023-03-17T05:53:54.465Z,35.17
2023-03-17T05:54:56.822Z,27.48
2023-03-17T05:55:58.972Z,38.35
2023-03-17T05:57:01.224Z,28.85
2023-03-17T05:58:05.140Z,29.17
2023-03-17T05:59:08.348Z,23.70
2023-03-17T06:00:12.769Z,29.92
2023-03-17T06:01:14.984Z,28.83
2023-03-17T06:02:17.230Z,29.23
2023-03-17T06:03:19.582Z,27.90
2023-03-17T06:04:21.951Z,34.35
2023-03-17T06:05:24.226Z,28.25
2023-03-17T06:06:27.072Z,30.77
2023-03-17T06:07:38.129Z,27.83
2023-03-17T06:08:50.763Z,26.50
2023-03-17T06:09:52.909Z,32.72
2023-03-17T06:10:55.084Z,28.10
2023-03-17T06:11:57.753Z,27.67
2023-03-17T06:13:03.371Z,28.15
2023-03-17T06:14:06.318Z,26.00
2023-03-17T06:15:09.848Z,28.90
2023-03-17T06:16:12.246Z,24.38
2023-03-17T06:17:14.496Z,30.02
2023-03-17T06:18:16.639Z,22.77
2023-03-17T06:19:19.122Z,29.95
2023-03-17T06:20:22.026Z,25.98
2023-03-17T06:21:24.219Z,31.55
2023-03-17T06:22:26.320Z,27.35
2023-03-17T06:23:28.497Z,26.88
2023-03-17T06:24:30.705Z,32.83
2023-03-17T06:25:34.871Z,30.35
2023-03-17T06:26:37.292Z,28.58
2023-03-17T06:27:39.644Z,28.63
2023-03-17T06:28:41.892Z,26.88
2023-03-17T06:29:44.083Z,28.25
2023-03-17T06:30:46.669Z,30.98
2023-03-17T06:31:51.204Z,26.77
2023-03-17T06:32:53.438Z,27.45
2023-03-17T06:33:57.456Z,34.60
2023-03-17T06:34:59.678Z,31.42
2023-03-17T06:36:01.895Z,31.70
2023-03-17T06:37:05.034Z,28.90
2023-03-17T06:38:07.570Z,32.50
2023-03-17T06:39:09.748Z,27.42
2023-03-17T06:40:12.617Z,30.35
2023-03-17T06:41:15.076Z,29.17
2023-03-17T06:42:17.214Z,29.95
2023-03-17T06:43:19.701Z,26.67
2023-03-17T06:44:22.135Z,21.45
2023-03-17T06:45:24.319Z,26.83
2023-03-17T06:46:27.153Z,29.27
2023-03-17T06:47:29.420Z,31.58
2023-03-17T06:48:31.504Z,27.48
2023-03-17T06:49:33.758Z,32.13
2023-03-17T06:50:36.194Z,26.33
2023-03-17T06:51:38.318Z,28.80
2023-03-17T06:52:40.969Z,25.60
2023-03-17T06:53:43.143Z,27.45
2023-03-17T06:54:45.245Z,28.27
2023-03-17T06:55:48.259Z,24.83
2023-03-17T06:56:50.950Z,25.13
2023-03-17T06:57:54.337Z,20.73
2023-03-17T06:58:56.454Z,28.92
2023-03-17T06:59:58.599Z,23.40
2023-03-17T07:01:00.865Z,20.90
2023-03-17T07:02:03.742Z,22.60
2023-03-17T07:03:06.325Z,26.80
2023-03-17T07:04:09.529Z,28.50
2023-03-17T07:05:13.964Z,24.92
2023-03-17T07:06:16.105Z,28.23
2023-03-17T07:07:19.607Z,31.30
2023-03-17T07:08:22.104Z,26.65
2023-03-17T07:09:24.220Z,26.20
2023-03-17T07:10:26.403Z,26.38
2023-03-17T07:11:29.307Z,25.02
2023-03-17T07:12:33.060Z,25.40
2023-03-17T07:13:37.314Z,25.70
2023-03-17T07:14:39.437Z,27.58
2023-03-17T07:15:41.913Z,34.08
2023-03-17T07:16:45.167Z,24.50
2023-03-17T07:17:47.962Z,25.55
2023-03-17T07:18:50.695Z,23.02
2023-03-17T07:19:52.813Z,27.60
2023-03-17T07:20:54.985Z,26.75
2023-03-17T07:21:57.232Z,26.83
2023-03-17T07:22:59.590Z,24.80
2023-03-17T07:24:01.719Z,12.63
2023-03-17T07:25:04.024Z,19.92
2023-03-17T07:26:06.146Z,17.83
2023-03-17T07:27:08.713Z,19.50
2023-03-17T07:28:10.855Z,19.58
2023-03-17T07:29:14.289Z,20.65
2023-03-17T07:30:19.210Z,21.45
2023-03-17T07:31:21.688Z,23.40
2023-03-17T07:32:24.731Z,21.20
2023-03-17T07:33:26.866Z,20.58
2023-03-17T07:34:29.079Z,20.20
2023-03-17T07:35:33.808Z,21.15
2023-03-17T07:36:36.578Z,19.00
2023-03-17T07:37:38.780Z,21.27
2023-03-17T07:38:41.769Z,23.63
2023-03-17T07:39:44.480Z,21.67
2023-03-17T07:40:49.829Z,24.33
2023-03-17T07:41:55.645Z,22.88
2023-03-17T07:42:57.759Z,17.92
2023-03-17T07:44:00.204Z,19.08
2023-03-17T07:45:03.952Z,21.80
2023-03-17T07:46:06.630Z,20.35
2023-03-17T07:47:10.215Z,18.13
2023-03-17T07:48:12.754Z,18.27
2023-03-17T07:49:15.203Z,20.27
2023-03-17T07:50:17.651Z,17.10
2023-03-17T07:51:22.225Z,16.95
2023-03-17T07:52:24.429Z,21.25
2023-03-17T07:53:26.612Z,16.75
2023-03-17T07:54:29.255Z,21.23
2023-03-17T07:55:32.791Z,22.25
2023-03-17T07:56:35.285Z,19.85
2023-03-17T07:57:37.502Z,19.13
2023-03-17T07:58:40.382Z,17.48
2023-03-17T07:59:42.511Z,21.63
2023-03-17T08:00:44.645Z,21.45
2023-03-17T08:01:46.826Z,17.42
2023-03-17T08:03:07.076Z,22.80
2023-03-17T08:04:13.310Z,18.92
2023-03-17T08:05:15.514Z,15.80
2023-03-17T08:06:17.861Z,18.70
2023-03-17T08:07:20.339Z,14.32
2023-03-17T08:08:23.680Z,15.48
2023-03-17T08:09:25.829Z,16.52
2023-03-17T08:10:28.057Z,20.00
2023-03-17T08:11:30.218Z,18.90
2023-03-17T08:12:32.371Z,15.82
2023-03-17T08:13:34.892Z,13.18
2023-03-17T08:14:37.022Z,12.55
2023-03-17T08:15:39.173Z,13.90
2023-03-17T08:16:41.452Z,13.98
2023-03-17T08:17:43.732Z,11.63
2023-03-17T08:18:46.243Z,17.92
2023-03-17T08:19:48.369Z,14.85
2023-03-17T08:20:51.462Z,15.20
2023-03-17T08:21:54.101Z,13.30
2023-03-17T08:22:56.871Z,19.73
2023-03-17T08:23:59.123Z,12.90
2023-03-17T08:25:01.573Z,15.05
2023-03-17T08:26:04.545Z,15.10
2023-03-17T08:27:08.094Z,13.98
2023-03-17T08:28:10.484Z,16.65
2023-03-17T08:29:12.642Z,14.02
2023-03-17T08:30:16.466Z,11.63
2023-03-17T08:31:20.901Z,7.85
2023-03-17T08:32:23.149Z,10.60
2023-03-17T08:33:25.305Z,6.63
2023-03-17T08:34:27.420Z,7.32
2023-03-17T08:35:31.028Z,6.70
2023-03-17T08:36:33.866Z,10.77
2023-03-17T08:37:37.898Z,9.40
2023-03-17T08:38:41.540Z,9.18
2023-03-17T08:39:44.926Z,9.50
2023-03-17T08:40:47.288Z,6.03
2023-03-17T08:41:49.417Z,8.70
2023-03-17T08:42:51.796Z,7.30
2023-03-17T08:43:54.444Z,7.85
2023-03-17T08:44:56.575Z,8.45
2023-03-17T08:46:13.883Z,6.85
2023-03-17T08:47:16.259Z,6.68
2023-03-17T08:48:18.369Z,7.80
2023-03-17T08:49:21.708Z,10.85
2023-03-17T08:50:24.288Z,7.32
2023-03-17T08:51:29.140Z,6.55
2023-03-17T08:52:31.693Z,9.05
2023-03-17T08:53:35.138Z,6.82
2023-03-17T08:54:37.468Z,8.82
2023-03-17T08:55:40.057Z,8.45
2023-03-17T08:56:42.584Z,9.20
2023-03-17T08:57:45.421Z,9.95
2023-03-17T08:58:48.348Z,9.13
2023-03-17T08:59:51.034Z,8.95
2023-03-17T09:00:53.943Z,7.75
2023-03-17T09:01:56.959Z,10.40
2023-03-17T09:02:59.257Z,6.35
2023-03-17T09:04:01.783Z,7.80
2023-03-17T09:05:05.936Z,11.43
2023-03-17T09:06:11.270Z,9.52
2023-03-17T09:07:13.629Z,8.38
2023-03-17T09:08:15.908Z,8.18
2023-03-17T09:09:18.601Z,8.75
2023-03-17T09:10:22.837Z,9.20
2023-03-17T09:11:27.671Z,7.88
2023-03-17T09:12:30.044Z,8.60
2023-03-17T09:13:33.760Z,10.05
2023-03-17T09:14:43.376Z,7.10
2023-03-17T09:15:46.210Z,6.43
2023-03-17T09:16:48.837Z,7.03
2023-03-17T09:17:50.970Z,8.02
2023-03-17T09:18:53.617Z,6.40
2023-03-17T09:19:55.962Z,8.60
2023-03-17T09:20:58.166Z,7.13
2023-03-17T09:22:00.689Z,8.07
2023-03-17T09:23:09.574Z,10.85
2023-03-17T09:24:12.486Z,15.20
2023-03-17T09:25:15.855Z,5.97
2023-03-17T09:26:17.980Z,7.57
2023-03-17T09:27:20.116Z,13.10
2023-03-17T09:28:22.229Z,8.63
2023-03-17T09:29:24.307Z,6.55
2023-03-17T09:30:27.059Z,5.82
2023-03-17T09:31:29.493Z,7.97
2023-03-17T09:32:32.428Z,5.85
2023-03-17T09:33:34.674Z,8.55
2023-03-17T09:34:36.828Z,12.20
2023-03-17T09:35:40.289Z,6.32
2023-03-17T09:36:42.866Z,9.75
2023-03-17T09:37:45.143Z,7.93
2023-03-17T09:38:47.359Z,7.22
2023-03-17T09:39:49.744Z,7.97
2023-03-17T09:41:21.362Z,7.47
2023-03-17T09:42:43.832Z,8.38
2023-03-17T09:43:56.962Z,7.43
2023-03-17T09:45:35.455Z,6.57
2023-03-17T09:46:46.405Z,7.15
2023-03-17T09:47:54.618Z,7.43
2023-03-17T09:49:02.193Z,7.43
2023-03-17T09:50:17.628Z,6.97
2023-03-17T09:51:20.069Z,8.63
2023-03-17T09:52:32.570Z,9.27
2023-03-17T09:53:51.720Z,9.43
2023-03-17T09:54:54.224Z,7.25
2023-03-17T09:55:58.513Z,6.63
2023-03-17T09:57:06.889Z,9.32
2023-03-17T09:58:10.421Z,4.65
2023-03-17T09:59:23.664Z,7.07
2023-03-17T10:00:29.296Z,6.13
2023-03-17T10:01:32.347Z,8.30
2023-03-17T10:02:37.987Z,9.90
2023-03-17T10:03:40.216Z,6.78
2023-03-17T10:04:44.996Z,7.50
2023-03-17T10:05:47.424Z,8.25
2023-03-17T10:06:50.357Z,9.85
2023-03-17T10:08:30.165Z,8.27
2023-03-17T10:09:43.461Z,6.65
2023-03-17T10:11:28.382Z,8.02
2023-03-17T10:12:47.078Z,9.15
2023-03-17T10:14:01.181Z,7.75
2023-03-17T10:15:16.615Z,7.55
2023-03-17T10:16:20.793Z,8.85
2023-03-17T10:17:26.684Z,8.20
2023-03-17T10:18:33.834Z,6.90
2023-03-17T10:19:54.728Z,7.63
2023-03-17T10:21:01.404Z,6.28
2023-03-17T10:22:10.430Z,5.15
2023-03-17T10:23:15.333Z,7.65
2023-03-17T10:24:18.791Z,8.60
2023-03-17T10:25:22.174Z,9.25
2023-03-17T10:26:35.002Z,7.00
2023-03-17T10:27:37.829Z,8.20
2023-03-17T10:28:40.495Z,7.47
2023-03-17T10:29:42.882Z,7.57
2023-03-17T10:30:45.025Z,7.05
2023-03-17T10:31:47.650Z,8.45
2023-03-17T10:32:52.011Z,8.88
2023-03-17T10:33:55.796Z,9.55
2023-03-17T10:34:57.919Z,9.88
2023-03-17T10:36:09.428Z,6.32
2023-03-17T10:37:20.362Z,9.35
2023-03-17T10:38:23.510Z,11.35
2023-03-17T10:39:25.727Z,8.70
2023-03-17T10:40:30.614Z,8.70
2023-03-17T10:41:36.164Z,8.73
2023-03-17T10:43:17.823Z,6.20
2023-03-17T10:44:34.879Z,8.00
2023-03-17T10:45:43.292Z,6.32
2023-03-17T10:46:53.406Z,5.25
2023-03-17T10:47:57.753Z,6.60
2023-03-17T10:49:07.450Z,13.52
2023-03-17T10:50:15.524Z,7.47
2023-03-17T10:51:31.906Z,8.40
2023-03-17T10:52:39.669Z,5.88
2023-03-17T10:53:43.880Z,6.30
2023-03-17T10:54:51.659Z,6.10
2023-03-17T10:56:07.508Z,6.82
2023-03-17T10:57:14.081Z,6.25
2023-03-17T10:58:22.884Z,8.65
2023-03-17T11:00:38.619Z,6.80
2023-03-17T11:01:45.922Z,6.93
2023-03-17T11:02:53.605Z,6.55
2023-03-17T11:03:56.221Z,5.55
2023-03-17T11:05:09.624Z,7.25
2023-03-17T11:06:17.064Z,7.60
2023-03-17T11:07:22.188Z,7.47
2023-03-17T11:08:24.406Z,5.95
2023-03-17T11:09:29.275Z,8.73
2023-03-17T11:10:37.001Z,6.35
2023-03-17T11:11:48.044Z,8.75
2023-03-17T11:14:06.086Z,7.07
2023-03-17T11:16:22.581Z,7.35
2023-03-17T11:17:36.560Z,7.10
2023-03-17T11:18:39.936Z,6.18
2023-03-17T11:19:49.920Z,7.25
2023-03-17T11:21:07.179Z,6.65
2023-03-17T11:22:41.960Z,7.57
2023-03-17T11:23:55.643Z,6.55
2023-03-17T11:25:19.636Z,8.07
2023-03-17T11:26:38.919Z,7.65
2023-03-17T11:27:49.866Z,8.45
2023-03-17T11:30:19.505Z,5.93
2023-03-17T11:31:32.278Z,5.65
2023-03-17T11:32:43.833Z,8.02
2023-03-17T11:34:00.305Z,6.93
2023-03-17T11:35:14.274Z,5.70
2023-03-17T11:36:51.613Z,9.63
2023-03-17T11:38:24.760Z,8.05
2023-03-17T11:39:28.647Z,7.72
2023-03-17T11:40:37.523Z,8.90
2023-03-17T11:41:48.646Z,5.75
2023-03-17T11:43:28.462Z,9.90
2023-03-17T11:44:53.297Z,8.85
2023-03-17T11:45:55.441Z,6.72
2023-03-17T11:47:21.469Z,7.63
2023-03-17T11:48:55.198Z,6.13
2023-03-17T11:50:08.444Z,8.23
2023-03-17T11:51:21.820Z,7.25
2023-03-17T11:52:33.540Z,6.53
2023-03-17T11:53:47.692Z,9.77
2023-03-17T11:54:54.164Z,6.90
2023-03-17T11:56:01.630Z,10.68
2023-03-17T11:57:08.240Z,8.68
2023-03-17T11:58:19.609Z,8.80
2023-03-17T11:59:36.279Z,7.13
2023-03-17T12:01:09.081Z,7.28
2023-03-17T12:02:23.479Z,8.00
2023-03-17T12:03:38.856Z,6.57
2023-03-17T12:04:58.883Z,6.18
2023-03-17T12:06:05.525Z,9.60
2023-03-17T12:07:23.151Z,6.70
2023-03-17T12:08:39.721Z,7.65
2023-03-17T12:09:45.691Z,9.05
2023-03-17T12:10:51.858Z,8.50
2023-03-17T12:11:55.816Z,7.35
2023-03-17T12:13:08.869Z,6.88
2023-03-17T12:14:30.915Z,7.80
2023-03-17T12:15:37.939Z,8.75
2023-03-17T12:17:10.784Z,8.88
2023-03-17T12:18:25.635Z,8.27
2023-03-17T12:19:36.991Z,9.77
2023-03-17T12:20:42.507Z,9.77
2023-03-17T12:21:50.319Z,6.05
2023-03-17T12:23:21.538Z,8.90
2023-03-17T12:24:41.855Z,9.23
2023-03-17T12:26:06.987Z,8.38
2023-03-17T12:27:23.400Z,8.38
2023-03-17T12:28:34.530Z,6.88
2023-03-17T12:29:58.419Z,8.32
2023-03-17T12:31:09.605Z,9.20
2023-03-17T12:32:47.258Z,9.93
2023-03-17T12:34:08.016Z,11.70
2023-03-17T12:35:22.103Z,10.40
2023-03-17T12:36:24.731Z,7.80
2023-03-17T12:37:28.329Z,8.40
2023-03-17T12:38:40.319Z,7.60
2023-03-17T12:39:47.850Z,7.88
2023-03-17T12:41:03.899Z,5.55
2023-03-17T12:42:08.871Z,7.97
2023-03-17T12:43:38.988Z,8.23
2023-03-17T12:46:43.408Z,6.55
2023-03-17T12:47:50.774Z,7.80
2023-03-17T12:49:19.984Z,8.07
2023-03-17T12:50:49.575Z,11.77
2023-03-17T12:52:22.761Z,12.15
2023-03-17T12:53:33.342Z,6.93
2023-03-17T12:54:37.393Z,7.70
2023-03-17T12:55:39.664Z,7.40
2023-03-17T12:56:46.397Z,11.80
2023-03-17T12:57:59.999Z,8.27
2023-03-17T12:59:24.090Z,11.68
2023-03-17T13:00:29.725Z,9.23
2023-03-17T13:01:32.924Z,8.52
2023-03-17T13:02:36.786Z,9.68
2023-03-17T13:03:47.228Z,7.03
2023-03-17T13:04:57.740Z,7.45
2023-03-17T13:06:02.446Z,9.52
2023-03-17T13:07:14.265Z,6.78
2023-03-17T13:08:25.610Z,10.18
2023-03-17T13:09:33.333Z,7.13
2023-03-17T13:10:48.132Z,8.60
2023-03-17T13:11:50.263Z,8.70
2023-03-17T13:13:05.776Z,12.75
2023-03-17T13:14:24.389Z,7.13
2023-03-17T13:15:35.999Z,10.65
2023-03-17T13:16:41.019Z,6.68
2023-03-17T13:17:43.269Z,7.30
2023-03-17T13:18:48.034Z,7.10
2023-03-17T13:20:10.167Z,11.98
2023-03-17T13:21:15.135Z,9.18
2023-03-17T13:22:22.706Z,10.50
2023-03-17T13:24:10.185Z,12.95
2023-03-17T13:25:36.247Z,10.73
2023-03-17T13:27:04.567Z,8.13
2023-03-17T13:28:12.777Z,11.35
2023-03-17T13:29:41.360Z,7.05
2023-03-17T13:30:54.999Z,8.82
2023-03-17T13:32:13.882Z,7.43
2023-03-17T13:33:23.490Z,9.57
2023-03-17T13:34:28.217Z,8.23
2023-03-17T13:35:48.262Z,8.85
2023-03-17T13:37:05.563Z,7.30
2023-03-17T13:38:30.894Z,6.47
2023-03-17T13:39:57.580Z,7.60
2023-03-17T13:41:14.572Z,11.00
2023-03-17T13:42:43.548Z,7.38
2023-03-17T13:44:12.162Z,6.35
2023-03-17T13:45:26.507Z,8.05
2023-03-17T13:46:41.771Z,9.55
2023-03-17T13:47:44.568Z,7.10
2023-03-17T13:48:47.142Z,9.30
2023-03-17T13:49:50.882Z,9.05
2023-03-17T13:51:17.777Z,10.27
2023-03-17T13:52:31.171Z,6.53
2023-03-17T13:53:37.466Z,11.00
2023-03-17T13:54:49.076Z,9.90
2023-03-17T13:56:12.346Z,7.32
2023-03-17T13:57:28.125Z,8.85
2023-03-17T13:58:34.293Z,7.55
2023-03-17T13:59:39.423Z,7.43
2023-03-17T14:00:46.984Z,9.70
2023-03-17T14:02:01.587Z,7.18
2023-03-17T14:03:34.393Z,10.73
2023-03-17T14:04:52.700Z,7.25
2023-03-17T14:05:55.809Z,6.53
2023-03-17T14:07:00.667Z,8.23
2023-03-17T14:08:27.453Z,7.28
2023-03-17T14:09:29.531Z,6.80
2023-03-17T14:10:34.064Z,10.07
2023-03-17T14:12:42.989Z,6.63
2023-03-17T14:14:06.042Z,8.40
2023-03-17T14:15:34.318Z,8.15
2023-03-17T14:16:55.388Z,9.10
2023-03-17T14:18:08.896Z,10.95
2023-03-17T14:19:17.946Z,10.57
2023-03-17T14:20:25.410Z,7.15
2023-03-17T14:21:32.675Z,8.00
2023-03-17T14:22:45.959Z,7.45
2023-03-17T14:23:58.938Z,6.72
2023-03-17T14:25:01.931Z,7.57
2023-03-17T14:26:05.121Z,7.65
2023-03-17T14:27:08.037Z,6.65
2023-03-17T14:28:13.115Z,8.15
2023-03-17T14:29:16.988Z,11.35
2023-03-17T14:30:30.787Z,9.57
2023-03-17T14:31:33.027Z,8.00